Time;durP1;ratioP1;P1;durP2;ratioP2;P2;SDS_P1;SDS_P2;PMS_P1;PMS_P2;Temp;Humidity;BMP_temperature;BMP_pressure;BME280_temperature;BME280_humidity;BME280_pressure;Samples;Min_cycle;Max_cycle;Signal;HPM_P1;HPM_P2
2022/09/20 00:01:02;;;;;;;9.30;2.15;;;9.30;99.90;;;;;;5052943;28;20421;-67
2022/09/20 00:03:28;;;;;;;12.85;2.10;;;9.30;99.90;;;;;;5058839;28;20056;-67
2022/09/20 00:05:53;;;;;;;11.38;2.00;;;9.20;99.90;;;;;;5048514;28;20483;-67
2022/09/20 00:08:19;;;;;;;11.25;2.20;;;9.20;99.90;;;;;;5053450;28;20064;-68
2022/09/20 00:10:45;;;;;;;10.93;2.28;;;9.10;99.90;;;;;;5058555;28;20123;-67
2022/09/20 00:13:12;;;;;;;14.48;2.35;;;9.10;99.90;;;;;;5057588;28;20041;-66
2022/09/20 00:15:43;;;;;;;8.88;2.20;;;9.00;99.90;;;;;;5054827;28;21427;-66
2022/09/20 00:18:09;;;;;;;13.48;2.13;;;9.00;99.90;;;;;;5033652;28;20086;-67
2022/09/20 00:20:34;;;;;;;15.60;2.05;;;9.00;99.90;;;;;;5059445;28;20049;-67
2022/09/20 00:23:00;;;;;;;15.95;1.90;;;9.10;99.90;;;;;;5050094;28;20088;-67
2022/09/20 00:25:26;;;;;;;8.55;2.60;;;9.20;99.90;;;;;;5055013;28;20044;-67
2022/09/20 00:27:51;;;;;;;10.13;2.05;;;9.10;99.90;;;;;;5050722;28;20059;-67
2022/09/20 00:30:17;;;;;;;10.73;2.15;;;9.20;99.90;;;;;;5073338;28;20037;-67
2022/09/20 00:32:42;;;;;;;11.75;2.30;;;9.20;99.90;;;;;;5052923;28;20065;-67
2022/09/20 00:35:09;;;;;;;8.13;2.20;;;9.20;99.90;;;;;;5058631;28;20040;-67
2022/09/20 00:37:40;;;;;;;9.20;2.08;;;9.30;99.90;;;;;;5041536;28;20056;-67
2022/09/20 00:40:12;;;;;;;8.73;1.80;;;9.40;99.90;;;;;;5051665;28;20041;-67
2022/09/20 00:42:39;;;;;;;13.25;1.90;;;9.40;99.90;;;;;;5062086;28;20040;-67
2022/09/20 00:45:19;;;;;;;14.65;2.55;;;9.40;99.90;;;;;;5055634;28;20036;-67
2022/09/20 00:48:08;;;;;;;14.23;2.28;;;9.50;99.90;;;;;;5057043;28;20040;-67
2022/09/20 00:50:55;;;;;;;10.57;2.20;;;9.50;99.90;;;;;;5056814;28;20052;-67
2022/09/20 00:53:32;;;;;;;10.90;2.25;;;9.50;99.90;;;;;;5073757;28;20041;-67
2022/09/20 00:56:11;;;;;;;13.32;2.35;;;9.50;99.90;;;;;;5073259;28;20035;-67
2022/09/20 00:58:41;;;;;;;16.20;2.28;;;9.60;99.90;;;;;;5071042;28;20402;-67
2022/09/20 01:01:07;;;;;;;12.27;2.20;;;9.60;99.90;;;;;;5056063;28;20049;-66
2022/09/20 01:03:35;;;;;;;11.57;2.35;;;9.50;99.90;;;;;;5051891;28;20144;-67
2022/09/20 01:06:06;;;;;;;11.38;2.40;;;9.50;99.90;;;;;;5070696;28;20099;-67
2022/09/20 01:08:34;;;;;;;8.40;2.20;;;9.50;99.90;;;;;;5072052;28;20051;-67
2022/09/20 01:11:00;;;;;;;15.02;2.22;;;9.60;99.90;;;;;;5053918;28;20518;-67
2022/09/20 01:13:25;;;;;;;11.75;2.50;;;9.60;99.90;;;;;;5073136;28;20036;-67
2022/09/20 01:15:52;;;;;;;8.90;2.13;;;9.60;99.90;;;;;;5036378;28;20048;-67
2022/09/20 01:18:19;;;;;;;10.82;2.40;;;9.70;99.90;;;;;;5039690;28;20078;-67
2022/09/20 01:20:47;;;;;;;11.30;2.15;;;9.60;99.90;;;;;;5073997;28;20227;-67
2022/09/20 01:23:18;;;;;;;12.38;2.00;;;9.80;99.90;;;;;;5054228;28;20114;-67
2022/09/20 01:26:05;;;;;;;9.40;2.00;;;9.70;99.90;;;;;;5057927;28;20040;-67
2022/09/20 01:28:32;;;;;;;11.98;2.35;;;9.80;99.90;;;;;;5057430;28;20292;-67
2022/09/20 01:31:21;;;;;;;13.57;2.17;;;9.80;99.90;;;;;;5050278;28;20360;-67
2022/09/20 01:34:20;;;;;;;8.43;1.85;;;9.90;99.90;;;;;;5050513;28;20045;-67
2022/09/20 01:36:57;;;;;;;12.43;2.00;;;9.90;99.90;;;;;;5053394;28;20041;-66
2022/09/20 01:39:45;;;;;;;10.90;1.88;;;9.90;99.90;;;;;;5058185;28;20033;-68
2022/09/20 01:42:12;;;;;;;8.90;1.60;;;9.90;99.90;;;;;;5047224;28;20048;-68
2022/09/20 01:44:59;;;;;;;14.65;1.80;;;10.00;99.90;;;;;;5059077;28;20388;-68
2022/09/20 01:47:44;;;;;;;9.30;2.05;;;10.10;99.90;;;;;;5058592;28;20528;-67
2022/09/20 01:50:14;;;;;;;8.60;1.63;;;10.20;99.90;;;;;;5054589;28;20041;-67
2022/09/20 01:53:08;;;;;;;12.70;1.80;;;10.30;99.90;;;;;;5056743;28;20368;-66
2022/09/20 01:56:02;;;;;;;15.38;2.17;;;10.40;99.90;;;;;;5069338;28;20037;-66
2022/09/20 01:58:49;;;;;;;12.70;1.65;;;10.50;99.90;;;;;;5055817;28;20119;-66
2022/09/20 02:01:54;;;;;;;11.93;1.52;;;10.60;99.90;;;;;;5041305;28;20049;-66
2022/09/20 02:04:44;;;;;;;10.38;1.65;;;10.60;99.90;;;;;;5027519;28;20111;-66
2022/09/20 02:07:28;;;;;;;11.13;2.10;;;10.70;99.90;;;;;;5065093;28;20438;-66
2022/09/20 02:10:21;;;;;;;12.63;1.50;;;10.60;99.90;;;;;;5053024;28;20050;-67
2022/09/20 02:12:59;;;;;;;7.07;1.65;;;10.60;99.90;;;;;;5068456;28;20414;-67
2022/09/20 02:15:27;;;;;;;12.95;2.03;;;10.60;99.90;;;;;;5058170;28;20053;-66
2022/09/20 02:18:15;;;;;;;7.97;1.67;;;10.50;99.90;;;;;;5067217;28;20060;-66
2022/09/20 02:20:54;;;;;;;8.63;1.73;;;10.50;99.90;;;;;;5051337;28;20033;-67
2022/09/20 02:23:47;;;;;;;14.80;2.67;;;10.60;99.90;;;;;;5054620;28;20179;-67
2022/09/20 02:26:30;;;;;;;;;;;10.50;99.90;;;;;;5055197;28;20411;-67
2022/09/20 02:29:11;;;;;;;;;;;10.50;99.90;;;;;;5053717;28;20288;-67
2022/09/20 02:31:55;;;;;;;8.00;1.77;;;10.50;99.90;;;;;;5054477;28;19932;-68
2022/09/20 02:34:34;;;;;;;11.70;1.83;;;10.50;99.90;;;;;;5070145;28;20032;-68
2022/09/20 02:37:21;;;;;;;8.23;1.55;;;10.60;99.90;;;;;;5057124;28;20041;-68
2022/09/20 02:40:24;;;;;;;10.73;1.70;;;10.50;99.90;;;;;;5065553;28;20047;-67
2022/09/20 02:43:00;;;;;;;9.02;2.05;;;10.50;99.90;;;;;;5049564;28;20036;-67
2022/09/20 02:45:30;;;;;;;10.02;1.83;;;10.50;99.90;;;;;;5048968;28;20491;-67
2022/09/20 02:48:03;;;;;;;9.55;1.88;;;10.50;99.90;;;;;;5070786;28;20045;-67
2022/09/20 02:50:50;;;;;;;11.05;2.08;;;10.60;99.90;;;;;;5047585;28;20098;-67
2022/09/20 02:53:43;;;;;;;10.98;2.20;;;10.60;99.90;;;;;;5051377;28;20037;-67
2022/09/20 02:56:28;;;;;;;12.55;2.30;;;10.60;99.90;;;;;;5052168;28;20033;-67
2022/09/20 02:58:58;;;;;;;8.80;1.98;;;10.70;99.90;;;;;;5053214;28;20090;-67
2022/09/20 03:01:42;;;;;;;10.73;2.13;;;10.60;99.90;;;;;;5052579;28;20048;-67
2022/09/20 03:04:46;;;;;;;9.32;1.92;;;10.70;99.90;;;;;;5055574;28;20046;-68
2022/09/20 03:07:26;;;;;;;9.65;1.88;;;10.70;99.90;;;;;;5055735;28;20041;-68
2022/09/20 03:10:30;;;;;;;7.78;1.80;;;10.70;99.90;;;;;;5060936;28;20324;-68
2022/09/20 03:13:17;;;;;;;10.77;2.08;;;10.70;99.90;;;;;;5057506;28;20074;-67
2022/09/20 03:16:27;;;;;;;7.55;2.15;;;10.50;99.90;;;;;;5057978;28;20059;-66
2022/09/20 03:19:16;;;;;;;10.70;2.30;;;10.70;99.90;;;;;;5039525;28;20048;-67
2022/09/20 03:21:59;;;;;;;15.27;2.33;;;10.70;99.90;;;;;;5053524;28;20043;-68
2022/09/20 03:24:57;;;;;;;9.80;2.03;;;10.70;99.90;;;;;;5054381;28;20518;-67
2022/09/20 03:27:35;;;;;;;9.98;2.10;;;10.70;99.90;;;;;;5071096;28;20052;-67
2022/09/20 03:30:40;;;;;;;6.68;2.40;;;10.70;99.90;;;;;;5057930;28;20048;-67
2022/09/20 03:33:26;;;;;;;12.20;2.42;;;10.70;99.90;;;;;;5054107;28;20036;-68
2022/09/20 03:36:09;;;;;;;8.65;2.00;;;10.70;99.90;;;;;;5069369;28;20041;-67
2022/09/20 03:38:50;;;;;;;8.80;2.17;;;10.70;99.90;;;;;;5078178;28;20036;-67
2022/09/20 03:41:35;;;;;;;6.70;2.28;;;10.80;99.90;;;;;;5054372;28;20086;-68
2022/09/20 03:44:09;;;;;;;11.45;2.10;;;10.80;99.90;;;;;;5061619;28;20499;-67
2022/09/20 03:46:44;;;;;;;9.35;2.30;;;10.80;99.90;;;;;;5057166;28;20452;-68
2022/09/20 03:49:31;;;;;;;11.88;2.60;;;10.80;99.90;;;;;;5059670;28;20045;-67
2022/09/20 03:52:16;;;;;;;5.28;1.77;;;10.70;99.90;;;;;;5055351;28;20063;-66
2022/09/20 03:55:02;;;;;;;8.07;1.70;;;10.70;99.90;;;;;;5058326;28;20056;-69
2022/09/20 03:57:47;;;;;;;14.13;2.28;;;10.80;99.90;;;;;;5065733;28;20044;-67
2022/09/20 04:00:46;;;;;;;5.40;1.33;;;10.70;99.90;;;;;;5074624;28;20495;-68
2022/09/20 04:03:30;;;;;;;6.88;1.60;;;10.90;99.90;;;;;;5070452;28;20037;-67
2022/09/20 04:06:03;;;;;;;6.13;1.35;;;10.90;99.90;;;;;;5046411;28;20052;-66
2022/09/20 04:08:31;;;;;;;7.47;1.40;;;10.90;99.90;;;;;;5047347;28;20059;-67
2022/09/20 04:11:16;;;;;;;8.25;1.30;;;11.00;99.90;;;;;;5048392;28;20045;-69
2022/09/20 04:13:55;;;;;;;5.47;1.40;;;11.00;99.90;;;;;;5063778;28;20047;-68
2022/09/20 04:16:57;;;;;;;5.97;1.50;;;11.00;99.90;;;;;;5059273;28;20073;-68
2022/09/20 04:19:31;;;;;;;8.20;1.38;;;11.10;99.90;;;;;;5066608;28;20047;-67
2022/09/20 04:21:59;;;;;;;7.68;1.30;;;11.10;99.90;;;;;;5044427;28;20048;-67
2022/09/20 04:24:27;;;;;;;9.18;1.50;;;11.20;99.90;;;;;;5047251;28;20037;-66
2022/09/20 04:27:00;;;;;;;7.22;1.10;;;11.10;99.90;;;;;;5057929;28;20040;-66
2022/09/20 04:29:39;;;;;;;5.68;1.55;;;11.10;99.90;;;;;;5039442;28;20531;-67
2022/09/20 04:32:24;;;;;;;9.63;1.52;;;11.20;99.90;;;;;;5060455;28;20063;-66
2022/09/20 04:38:04;;;;;;;7.40;1.50;;;11.20;99.90;;;;;;5060240;28;20051;-68
2022/09/20 04:40:43;;;;;;;9.55;1.60;;;11.10;99.90;;;;;;5044087;28;20041;-68
2022/09/20 04:43:44;;;;;;;6.00;1.45;;;11.10;99.90;;;;;;5074237;28;20076;-67
2022/09/20 04:46:48;;;;;;;10.15;1.50;;;11.20;99.90;;;;;;5050620;28;20049;-67
2022/09/20 04:49:48;;;;;;;4.80;1.35;;;11.20;99.90;;;;;;5065108;28;20051;-67
2022/09/20 04:52:33;;;;;;;8.13;1.20;;;11.20;99.90;;;;;;5051500;28;20057;-67
2022/09/20 04:55:34;;;;;;;5.95;1.02;;;11.10;99.90;;;;;;5046637;28;20498;-67
2022/09/20 04:58:35;;;;;;;5.65;1.35;;;11.20;99.90;;;;;;5059841;28;20041;-67
2022/09/20 05:01:16;;;;;;;5.85;1.13;;;11.00;99.90;;;;;;5037321;28;20535;-67
2022/09/20 05:03:48;;;;;;;8.63;1.20;;;11.10;99.90;;;;;;5072486;28;20041;-67
2022/09/20 05:06:39;;;;;;;4.82;1.70;;;11.10;99.90;;;;;;5068519;28;20123;-67
2022/09/20 05:09:47;;;;;;;6.18;1.20;;;11.10;99.90;;;;;;5069256;28;20206;-67
2022/09/20 05:12:40;;;;;;;6.13;1.30;;;11.00;99.90;;;;;;5063409;28;20462;-67
2022/09/20 05:15:42;;;;;;;3.78;1.30;;;11.00;99.90;;;;;;5071015;28;20045;-67
2022/09/20 05:18:34;;;;;;;14.70;1.75;;;11.00;99.90;;;;;;4994392;28;20041;-67
2022/09/20 05:21:15;;;;;;;6.03;1.25;;;11.00;99.90;;;;;;5043939;28;20059;-68
2022/09/20 05:24:02;;;;;;;7.40;1.40;;;11.00;99.90;;;;;;5050606;28;20045;-67
2022/09/20 05:26:37;;;;;;;7.47;1.70;;;11.00;99.90;;;;;;5047398;28;20071;-67
2022/09/20 05:29:10;;;;;;;6.60;1.50;;;11.00;99.90;;;;;;5052411;28;20059;-67
2022/09/20 05:32:09;;;;;;;5.38;1.75;;;10.90;99.90;;;;;;5066815;28;20048;-67
2022/09/20 05:35:08;;;;;;;6.60;1.80;;;10.90;99.90;;;;;;5038525;28;20046;-68
2022/09/20 05:37:49;;;;;;;9.07;2.00;;;10.90;99.90;;;;;;5044222;28;20041;-67
2022/09/20 05:40:21;;;;;;;5.05;2.10;;;10.90;99.90;;;;;;5051847;28;20503;-67
2022/09/20 05:43:19;;;;;;;8.80;2.17;;;10.80;99.90;;;;;;5059469;28;20044;-67
2022/09/20 05:46:02;;;;;;;7.38;1.80;;;10.80;99.90;;;;;;5045459;28;20671;-67
2022/09/20 05:48:49;;;;;;;5.20;1.70;;;10.90;99.90;;;;;;5031289;28;20045;-68
2022/09/20 05:51:23;;;;;;;5.05;1.70;;;10.80;99.90;;;;;;5045052;28;20076;-67
2022/09/20 05:53:55;;;;;;;7.97;1.80;;;10.90;99.90;;;;;;5052767;28;20044;-68
2022/09/20 05:56:33;;;;;;;4.93;1.80;;;10.80;99.90;;;;;;5054822;28;20037;-68
2022/09/20 05:59:21;;;;;;;7.30;2.10;;;10.90;99.90;;;;;;5052450;28;20041;-67
2022/09/20 06:02:20;;;;;;;7.45;2.20;;;10.80;99.90;;;;;;5042937;28;20052;-67
2022/09/20 06:05:17;;;;;;;10.68;2.28;;;10.90;99.90;;;;;;5031111;28;20073;-67
2022/09/20 06:07:46;;;;;;;6.53;2.15;;;10.90;99.90;;;;;;5047852;28;20048;-67
2022/09/20 06:10:33;;;;;;;9.07;2.10;;;10.90;99.90;;;;;;5039328;28;20055;-67
2022/09/20 06:13:37;;;;;;;7.55;2.10;;;10.90;99.90;;;;;;5046802;28;20037;-68
2022/09/20 06:16:05;;;;;;;8.23;1.77;;;11.00;99.90;;;;;;5035924;28;20048;-69
2022/09/20 06:18:56;;;;;;;7.75;2.00;;;10.90;99.90;;;;;;5049413;28;20098;-69
2022/09/20 06:21:40;;;;;;;11.30;2.30;;;11.00;99.90;;;;;;5049077;28;20071;-68
2022/09/20 06:24:20;;;;;;;8.77;2.38;;;11.10;99.90;;;;;;5031518;28;20087;-66
2022/09/20 06:26:50;;;;;;;7.10;1.90;;;11.20;99.90;;;;;;5029458;28;20041;-68
2022/09/20 06:29:21;;;;;;;7.10;2.42;;;11.10;99.90;;;;;;5054170;28;20483;-67
2022/09/20 06:31:47;;;;;;;7.80;2.50;;;11.20;99.90;;;;;;5071920;28;20044;-68
2022/09/20 06:34:14;;;;;;;6.50;2.30;;;11.20;99.90;;;;;;5050830;28;20118;-67
2022/09/20 06:42:30;;;;;;;8.00;2.60;;;11.30;99.90;;;;;;5032758;28;20399;-68
2022/09/20 06:44:55;;;;;;;11.68;2.80;;;11.30;99.90;;;;;;5030980;28;20034;-67
2022/09/20 06:47:25;;;;;;;9.63;2.83;;;11.30;99.90;;;;;;5046498;28;20096;-67
2022/09/20 06:49:50;;;;;;;8.02;2.45;;;11.40;99.90;;;;;;5032499;28;20704;-69
2022/09/20 06:52:17;;;;;;;10.68;2.40;;;11.30;99.90;;;;;;5050080;28;20044;-69
2022/09/20 06:54:45;;;;;;;8.82;2.60;;;11.30;99.90;;;;;;5047756;28;20479;-68
2022/09/20 06:57:20;;;;;;;10.50;2.72;;;11.40;99.90;;;;;;5050281;28;20045;-68
2022/09/20 06:59:46;;;;;;;9.73;2.40;;;11.50;99.90;;;;;;5065603;28;20400;-67
2022/09/20 07:02:12;;;;;;;5.63;2.20;;;11.50;99.90;;;;;;5048844;28;20064;-68
2022/09/20 07:04:37;;;;;;;6.32;2.10;;;11.40;99.90;;;;;;5051282;28;20041;-69
2022/09/20 07:07:05;;;;;;;5.25;1.83;;;11.60;99.90;;;;;;5048024;28;20049;-69
2022/09/20 07:09:30;;;;;;;6.60;1.90;;;11.70;99.90;;;;;;5042827;28;20041;-68
2022/09/20 07:11:58;;;;;;;8.93;2.13;;;11.70;99.90;;;;;;5045205;28;20372;-71
2022/09/20 07:14:27;;;;;;;6.53;1.50;;;11.80;99.90;;;;;;5066407;28;20087;-70
2022/09/20 07:16:53;;;;;;;5.85;1.80;;;11.90;99.90;;;;;;5049323;28;20507;-68
2022/09/20 07:19:19;;;;;;;7.68;1.63;;;11.90;99.90;;;;;;5049995;28;20045;-71
2022/09/20 07:21:45;;;;;;;4.32;1.60;;;12.00;99.90;;;;;;5049311;28;20037;-67
2022/09/20 07:24:13;;;;;;;7.07;1.90;;;12.10;99.90;;;;;;5048299;28;20040;-66
2022/09/20 07:26:38;;;;;;;3.17;1.33;;;12.10;99.90;;;;;;5066578;28;20084;-70
2022/09/20 07:29:06;;;;;;;4.25;2.00;;;12.00;99.90;;;;;;5049663;28;20452;-68
2022/09/20 07:31:32;;;;;;;4.78;1.33;;;12.00;99.90;;;;;;5050106;28;20059;-69
2022/09/20 07:33:58;;;;;;;7.15;1.60;;;12.10;99.90;;;;;;5050965;28;20116;-68
2022/09/20 07:36:23;;;;;;;7.60;1.70;;;12.20;99.90;;;;;;5049760;28;20037;-69
2022/09/20 07:38:51;;;;;;;5.85;1.73;;;12.30;99.90;;;;;;5049528;28;20537;-68
2022/09/20 07:41:18;;;;;;;6.47;1.50;;;12.40;99.90;;;;;;5048631;28;20045;-71
2022/09/20 07:43:44;;;;;;;8.38;1.88;;;12.40;99.90;;;;;;5045112;28;20050;-68
2022/09/20 07:46:12;;;;;;;7.97;1.33;;;12.50;99.90;;;;;;5029105;28;20399;-67
2022/09/20 07:48:39;;;;;;;8.43;1.23;;;12.70;99.90;;;;;;5045637;28;20050;-72
2022/09/20 07:51:07;;;;;;;8.30;1.40;;;12.90;99.90;;;;;;5029364;28;20455;-69
2022/09/20 07:53:33;;;;;;;6.60;1.38;;;13.00;99.90;;;;;;5034619;28;20045;-68
2022/09/20 07:56:01;;;;;;;5.05;1.35;;;13.20;99.90;;;;;;5049942;28;20049;-68
2022/09/20 07:58:28;;;;;;;8.18;1.65;;;13.30;99.90;;;;;;5050706;28;20044;-66
2022/09/20 08:00:57;;;;;;;6.20;1.40;;;13.30;99.90;;;;;;5053186;28;20045;-65
2022/09/20 08:03:24;;;;;;;9.50;1.50;;;13.30;99.90;;;;;;5051373;28;20051;-67
2022/09/20 08:05:50;;;;;;;5.97;1.25;;;13.20;99.90;;;;;;5069609;28;20106;-68
2022/09/20 08:08:17;;;;;;;7.05;1.10;;;13.10;99.90;;;;;;5047845;28;20037;-68
2022/09/20 08:10:44;;;;;;;5.18;1.45;;;13.10;99.90;;;;;;5032550;28;20053;-66
2022/09/20 08:13:12;;;;;;;9.88;1.27;;;13.10;99.90;;;;;;5048148;28;20087;-66
2022/09/20 08:15:38;;;;;;;9.80;1.73;;;13.20;99.90;;;;;;5049270;28;20033;-67
2022/09/20 08:18:04;;;;;;;8.20;1.60;;;13.30;99.90;;;;;;5049515;28;20452;-68
2022/09/20 08:20:30;;;;;;;5.53;1.42;;;13.30;99.90;;;;;;5049260;28;20053;-67
2022/09/20 08:22:57;;;;;;;8.00;1.55;;;13.40;99.90;;;;;;5048604;28;20507;-69
2022/09/20 08:25:23;;;;;;;11.45;2.17;;;13.60;99.90;;;;;;5049525;28;20057;-66
2022/09/20 08:27:53;;;;;;;6.18;1.42;;;13.70;99.90;;;;;;5054148;28;20382;-69
2022/09/20 08:30:18;;;;;;;9.20;1.30;;;13.90;99.90;;;;;;5066375;28;20476;-68
2022/09/20 08:32:44;;;;;;;6.40;1.02;;;14.10;99.90;;;;;;5050914;28;20032;-71
2022/09/20 08:35:10;;;;;;;8.27;1.30;;;14.20;99.90;;;;;;5040979;28;20037;-70
2022/09/20 08:37:36;;;;;;;5.22;1.20;;;14.40;99.90;;;;;;5066021;28;20183;-69
2022/09/20 08:40:03;;;;;;;10.15;2.50;;;14.60;99.90;;;;;;5053832;28;21519;-67
2022/09/20 08:42:35;;;;;;;10.80;1.27;;;14.70;99.90;;;;;;5071499;28;20088;-68
2022/09/20 08:45:06;;;;;;;9.35;1.27;;;14.60;99.90;;;;;;5051407;28;20102;-69
2022/09/20 08:47:35;;;;;;;8.73;1.20;;;14.50;99.90;;;;;;5047372;28;20052;-71
2022/09/20 08:50:06;;;;;;;7.15;1.00;;;14.50;99.90;;;;;;5054799;28;20445;-71
2022/09/20 08:52:36;;;;;;;5.22;1.10;;;14.40;99.90;;;;;;5051081;28;20051;-67
2022/09/20 08:55:02;;;;;;;5.07;1.00;;;14.30;99.90;;;;;;5052347;28;20120;-67
2022/09/20 08:57:32;;;;;;;7.05;1.00;;;14.30;99.90;;;;;;5048850;28;20479;-68
2022/09/20 09:00:03;;;;;;;8.00;1.08;;;14.30;99.90;;;;;;5050453;28;20503;-68
2022/09/20 09:02:31;;;;;;;6.45;1.00;;;14.30;99.90;;;;;;5060321;28;20059;-69
2022/09/20 09:04:57;;;;;;;6.78;1.20;;;14.30;99.90;;;;;;5051491;28;20055;-68
2022/09/20 09:07:24;;;;;;;6.22;1.38;;;14.20;99.90;;;;;;5046486;28;20048;-69
2022/09/20 09:09:53;;;;;;;5.45;1.00;;;14.10;99.90;;;;;;5052146;28;20036;-67
2022/09/20 09:12:29;;;;;;;4.20;1.10;;;14.20;99.90;;;;;;5060610;28;20060;-68
2022/09/20 09:15:25;;;;;;;11.13;1.20;;;14.30;99.90;;;;;;5049361;28;20037;-68
2022/09/20 09:17:52;;;;;;;5.15;0.85;;;14.40;99.90;;;;;;5064195;28;20048;-67
2022/09/20 09:20:21;;;;;;;7.70;1.33;;;14.60;99.90;;;;;;5076565;28;20483;-66
2022/09/20 09:22:57;;;;;;;7.13;1.17;;;14.60;99.90;;;;;;5042126;28;20667;-67
2022/09/20 09:25:33;;;;;;;5.82;1.20;;;14.70;99.90;;;;;;5068934;28;20044;-69
2022/09/20 09:28:02;;;;;;;6.88;1.20;;;14.80;99.90;;;;;;5058444;28;20123;-69
2022/09/20 09:30:37;;;;;;;8.45;1.30;;;14.80;99.90;;;;;;5049246;28;20491;-67
2022/09/20 09:33:29;;;;;;;8.05;1.20;;;14.80;99.90;;;;;;5066333;28;20083;-66
2022/09/20 09:36:13;;;;;;;;;;;14.80;99.90;;;;;;5050674;28;20040;-66
2022/09/20 09:38:43;;;;;;;8.05;1.33;;;14.90;99.90;;;;;;5053515;28;19951;-68
2022/09/20 09:41:28;;;;;;;6.40;1.25;;;15.00;99.90;;;;;;5043058;28;20491;-73
2022/09/20 09:44:09;;;;;;;8.48;1.40;;;15.20;99.90;;;;;;5055875;28;20041;-71
2022/09/20 09:46:37;;;;;;;6.55;1.00;;;15.30;99.90;;;;;;5059829;28;20048;-71
2022/09/20 09:49:15;;;;;;;10.90;1.52;;;15.50;99.90;;;;;;5048104;28;20037;-70
2022/09/20 09:52:01;;;;;;;9.38;1.40;;;15.60;99.90;;;;;;5041060;28;20051;-68
2022/09/20 09:54:36;;;;;;;6.80;1.13;;;15.70;99.90;;;;;;5045634;28;20037;-68
2022/09/20 09:57:30;;;;;;;7.57;1.10;;;15.50;99.90;;;;;;5051852;28;20033;-72
2022/09/20 10:00:20;;;;;;;5.40;1.30;;;15.30;99.90;;;;;;5051775;28;20045;-69
2022/09/20 10:03:03;;;;;;;10.52;1.13;;;15.20;99.90;;;;;;5057863;28;20113;-69
2022/09/20 10:05:52;;;;;;;6.13;1.02;;;15.10;99.90;;;;;;5049014;28;20102;-72
2022/09/20 10:08:37;;;;;;;7.05;1.33;;;15.00;99.90;;;;;;5051104;28;20038;-67
2022/09/20 10:11:10;;;;;;;4.10;1.17;;;14.90;99.90;;;;;;5066297;28;20057;-67
2022/09/20 10:13:55;;;;;;;3.58;1.20;;;14.90;99.90;;;;;;5048526;28;20064;-68
2022/09/20 10:16:30;;;;;;;5.30;1.20;;;14.90;99.90;;;;;;5042823;28;20040;-68
2022/09/20 10:19:15;;;;;;;5.60;0.93;;;15.00;99.90;;;;;;5055171;28;20398;-68
2022/09/20 10:22:27;;;;;;;6.13;1.15;;;14.90;99.90;;;;;;5050010;28;20049;-69
2022/09/20 10:25:27;;;;;;;7.10;1.20;;;14.90;99.90;;;;;;5048891;28;20541;-68
2022/09/20 10:28:28;;;;;;;8.05;1.20;;;14.70;99.90;;;;;;5049493;28;20311;-70
2022/09/20 10:31:19;;;;;;;5.50;1.20;;;14.50;99.90;;;;;;5048537;28;20049;-69
2022/09/20 10:34:36;;;;;;;9.52;1.92;;;14.30;99.90;;;;;;5071617;28;20067;-67
2022/09/20 10:37:01;;;;;;;9.15;1.20;;;14.10;99.90;;;;;;5049844;28;20387;-67
2022/09/20 10:39:35;;;;;;;4.22;1.08;;;14.10;99.90;;;;;;5052641;28;20144;-67
2022/09/20 10:45:23;;;;;;;8.68;1.40;;;14.10;99.90;;;;;;5053211;28;20061;-66
2022/09/20 10:48:23;;;;;;;5.47;1.25;;;14.20;99.90;;;;;;5049516;28;20045;-66
2022/09/20 10:50:52;;;;;;;8.20;1.30;;;14.30;99.90;;;;;;5047249;28;20483;-67
2022/09/20 10:53:48;;;;;;;8.50;1.13;;;14.50;99.90;;;;;;5050044;28;20171;-68
2022/09/20 10:56:28;;;;;;;6.78;1.27;;;14.70;99.90;;;;;;5049743;28;20041;-68
2022/09/20 10:59:31;;;;;;;7.93;1.23;;;14.70;99.90;;;;;;5049344;28;20049;-69
2022/09/20 11:01:56;;;;;;;7.32;1.23;;;14.80;99.90;;;;;;5045665;28;20038;-65
2022/09/20 11:05:06;;;;;;;7.13;1.13;;;15.00;99.90;;;;;;5048964;28;20051;-68
2022/09/20 11:07:32;;;;;;;8.25;1.15;;;15.00;99.90;;;;;;5050370;28;20037;-70
2022/09/20 11:10:03;;;;;;;7.70;1.23;;;15.00;99.90;;;;;;5039741;28;20049;-67
2022/09/20 11:12:41;;;;;;;5.68;1.20;;;15.10;99.90;;;;;;5029088;28;20048;-70
2022/09/20 11:15:32;;;;;;;6.47;1.00;;;15.10;99.90;;;;;;5028492;28;20053;-68
2022/09/20 11:18:21;;;;;;;6.90;0.85;;;15.10;99.90;;;;;;5028858;28;20041;-66
2022/09/20 11:21:06;;;;;;;6.95;0.95;;;15.20;99.90;;;;;;5045118;28;20049;-67
2022/09/20 11:23:43;;;;;;;7.65;1.10;;;15.20;99.90;;;;;;5030147;28;20132;-69
2022/09/20 11:26:15;;;;;;;4.70;0.90;;;15.20;99.90;;;;;;5052398;28;20045;-68
2022/09/20 11:28:49;;;;;;;5.25;0.88;;;15.30;99.90;;;;;;5051925;28;20044;-71
2022/09/20 11:31:44;;;;;;;10.57;1.17;;;15.50;99.90;;;;;;5051950;28;20421;-71
2022/09/20 11:34:19;;;;;;;6.55;0.98;;;15.70;99.90;;;;;;5052429;28;20045;-71
2022/09/20 11:36:56;;;;;;;6.10;1.02;;;15.80;99.90;;;;;;5052874;28;20044;-72
2022/09/20 11:39:46;;;;;;;4.13;1.23;;;15.80;99.90;;;;;;5059092;28;20394;-72
2022/09/20 11:42:26;;;;;;;7.35;1.25;;;15.90;99.90;;;;;;5057665;28;20037;-71
2022/09/20 11:44:53;;;;;;;7.70;1.30;;;15.90;99.90;;;;;;5052605;28;20105;-67
2022/09/20 11:47:30;;;;;;;7.30;1.23;;;15.90;99.90;;;;;;5067409;28;20037;-71
2022/09/20 11:50:50;;;;;;;6.65;1.02;;;15.90;99.90;;;;;;5044184;28;20045;-69
2022/09/20 11:53:31;;;;;;;10.05;1.20;;;15.80;99.90;;;;;;5013878;28;20081;-67
2022/09/20 11:56:06;;;;;;;4.95;1.00;;;15.60;99.90;;;;;;5044780;28;20464;-66
2022/09/20 11:58:47;;;;;;;7.82;1.50;;;15.50;99.90;;;;;;5043921;28;20048;-67
2022/09/20 12:01:15;;;;;;;6.25;0.93;;;15.30;99.90;;;;;;5054390;28;20452;-66
2022/09/20 12:03:44;;;;;;;6.28;1.10;;;15.20;99.90;;;;;;5071211;28;20443;-67
2022/09/20 12:06:32;;;;;;;6.15;1.27;;;14.90;99.90;;;;;;5045366;28;20418;-66
2022/09/20 12:09:03;;;;;;;9.93;1.48;;;14.60;99.90;;;;;;5047896;28;20092;-65
2022/09/20 12:11:32;;;;;;;8.18;1.40;;;14.20;99.90;;;;;;5033357;28;20049;-66
2022/09/20 12:14:26;;;;;;;8.00;1.60;;;14.00;99.90;;;;;;5058989;28;20277;-65
2022/09/20 12:16:52;;;;;;;5.28;1.40;;;14.00;99.90;;;;;;5052927;28;20093;-65
2022/09/20 12:19:33;;;;;;;4.00;1.23;;;14.00;99.90;;;;;;5055831;28;20543;-65
2022/09/20 12:21:58;;;;;;;7.55;1.23;;;14.10;99.90;;;;;;5055279;28;20173;-65
2022/09/20 12:24:40;;;;;;;9.23;1.27;;;14.10;99.90;;;;;;5058126;28;20041;-66
2022/09/20 12:27:30;;;;;;;8.85;1.77;;;14.20;99.90;;;;;;5050787;28;20052;-68
2022/09/20 12:30:19;;;;;;;5.55;1.35;;;14.30;99.90;;;;;;5061564;28;20561;-68
2022/09/20 12:32:53;;;;;;;9.43;1.50;;;14.40;99.90;;;;;;5049734;28;20048;-68
2022/09/20 12:35:34;;;;;;;10.70;1.30;;;14.50;99.90;;;;;;5051599;28;20048;-69
2022/09/20 12:38:19;;;;;;;4.43;1.25;;;14.50;99.90;;;;;;5050747;28;20045;-74
2022/09/20 12:41:18;;;;;;;5.32;1.30;;;14.60;99.90;;;;;;5051415;28;20056;-71
2022/09/20 12:43:54;;;;;;;7.45;1.38;;;14.70;99.90;;;;;;5040332;28;20411;-71
2022/09/20 12:46:48;;;;;;;11.35;1.48;;;14.70;99.90;;;;;;5050750;28;20053;-72
2022/09/20 12:55:26;;;;;;;6.72;1.50;;;15.30;99.90;;;;;;5044124;28;20059;-72
2022/09/20 12:57:54;;;;;;;12.50;1.85;;;15.40;99.90;;;;;;5054620;28;20997;-72
2022/09/20 13:00:35;;;;;;;6.82;1.42;;;15.30;99.90;;;;;;5043318;28;20418;-72
2022/09/20 13:03:12;;;;;;;7.00;1.65;;;15.30;99.90;;;;;;5048723;28;20441;-72
2022/09/20 13:05:39;;;;;;;11.27;1.15;;;15.30;99.90;;;;;;5050921;28;20469;-65
2022/09/20 13:08:30;;;;;;;6.40;0.95;;;15.30;99.90;;;;;;5052891;28;20124;-72
2022/09/20 13:11:08;;;;;;;4.93;1.00;;;15.30;99.90;;;;;;5051906;28;20041;-74
2022/09/20 13:13:53;;;;;;;4.88;0.90;;;15.30;99.90;;;;;;5052358;28;20052;-69
2022/09/20 13:16:25;;;;;;;9.00;1.23;;;15.40;99.90;;;;;;5049606;28;20115;-72
2022/09/20 13:19:05;;;;;;;10.10;1.23;;;15.70;99.90;;;;;;5051283;28;20479;-69
2022/09/20 13:21:42;;;;;;;11.75;1.40;;;16.00;99.90;;;;;;5030948;28;20389;-73
2022/09/20 13:24:14;;;;;;;7.50;1.10;;;16.20;99.90;;;;;;5031677;28;20403;-70
2022/09/20 13:26:44;;;;;;;6.63;1.15;;;16.30;99.90;;;;;;5031696;28;20471;-70
2022/09/20 13:29:29;;;;;;;6.22;1.20;;;16.20;99.90;;;;;;5031324;28;20038;-67
2022/09/20 13:31:55;;;;;;;7.85;1.13;;;16.00;99.90;;;;;;5030442;28;20431;-65
2022/09/20 13:34:24;;;;;;;9.95;1.42;;;15.90;99.90;;;;;;5047632;28;20045;-64
2022/09/20 13:36:54;;;;;;;6.70;1.33;;;15.90;99.90;;;;;;5051029;28;20037;-71
2022/09/20 13:39:28;;;;;;;4.40;1.17;;;15.90;99.90;;;;;;5059569;28;20058;-71
2022/09/20 13:42:00;;;;;;;3.10;1.23;;;16.00;99.90;;;;;;5061309;28;20514;-76
2022/09/20 13:44:28;;;;;;;7.50;1.30;;;15.90;99.90;;;;;;5049113;28;20055;-74
2022/09/20 13:46:53;;;;;;;8.73;1.33;;;16.00;99.90;;;;;;5057882;28;20044;-74
2022/09/20 13:49:23;;;;;;;7.82;1.13;;;16.00;99.90;;;;;;5049094;28;20538;-74
2022/09/20 13:51:49;;;;;;;7.70;1.27;;;16.10;99.90;;;;;;5030319;28;20099;-72
2022/09/20 13:54:27;;;;;;;7.70;1.20;;;16.30;99.90;;;;;;5050132;28;20033;-70
2022/09/20 13:57:00;;;;;;;5.10;1.00;;;16.50;99.90;;;;;;5069252;28;20047;-72
2022/09/20 13:59:32;;;;;;;8.20;1.20;;;16.60;99.90;;;;;;5070150;28;20590;-66